Time;durP1;ratioP1;P1;durP2;ratioP2;P2;SDS_P1;SDS_P2;PMS_P1;PMS_P2;Temp;Humidity;BMP_temperature;BMP_pressure;BME280_temperature;BME280_humidity;BME280_pressure;Samples;Min_cycle;Max_cycle;Signal;HPM_P1;HPM_P2
2023/12/08 00:00:47;;;;;;;;;3.00;1.00;;;;;3.83;76.45;99149.88;5037923;28;8862;-92
2023/12/08 00:03:14;;;;;;;;;0.00;0.00;;;;;3.89;75.44;99143.34;5037193;28;8880;-92
2023/12/08 00:05:42;;;;;;;;;3.20;3.20;;;;;3.93;75.40;99135.16;5037949;28;9530;-92
2023/12/08 00:08:10;;;;;;;;;0.60;0.60;;;;;3.97;75.95;99141.06;5037408;28;8967;-92
2023/12/08 00:10:38;;;;;;;;;3.00;3.00;;;;;4.01;75.07;99134.63;5037597;28;8875;-93
2023/12/08 00:13:05;;;;;;;;;3.00;0.80;;;;;4.04;75.28;99131.81;5037586;28;8971;-93
2023/12/08 00:15:33;;;;;;;;;0.00;0.00;;;;;4.07;75.39;99139.50;5037347;28;8938;-92
2023/12/08 00:18:01;;;;;;;;;3.80;3.00;;;;;4.10;75.22;99123.50;5037621;28;8848;-92
2023/12/08 00:20:29;;;;;;;;;0.80;0.80;;;;;4.13;74.81;99131.19;5037766;28;8926;-93
2023/12/08 00:22:56;;;;;;;;;3.00;3.00;;;;;4.15;74.84;99116.13;5037212;28;8860;-92
2023/12/08 00:25:24;;;;;;;;;3.00;3.00;;;;;4.18;74.21;99108.03;5037157;28;8836;-93
2023/12/08 00:27:52;;;;;;;;;1.00;1.00;;;;;4.21;74.40;99092.88;5037150;28;8833;-93
2023/12/08 00:30:20;;;;;;;;;0.60;0.60;;;;;4.23;74.33;99079.56;5037154;28;8828;-92
2023/12/08 00:32:47;;;;;;;;;0.80;0.20;;;;;4.24;74.85;99065.44;5036989;28;8957;-92
2023/12/08 00:35:16;;;;;;;;;1.40;0.60;;;;;4.26;74.10;99047.75;5036956;28;9540;-94
2023/12/08 00:37:43;;;;;;;;;1.00;1.00;;;;;4.29;73.98;99045.75;5037230;28;8933;-92
2023/12/08 00:40:11;;;;;;;;;1.00;1.00;;;;;4.32;74.01;99047.31;5036804;28;8844;-93
2023/12/08 00:42:39;;;;;;;;;2.60;2.60;;;;;4.32;74.09;99071.88;5036987;28;8868;-93
2023/12/08 00:45:06;;;;;;;;;0.60;0.60;;;;;4.33;74.15;99070.94;5037104;28;8832;-93
2023/12/08 00:47:34;;;;;;;;;1.80;1.80;;;;;4.33;73.82;99065.66;5036662;28;8836;-92
2023/12/08 00:50:02;;;;;;;;;3.80;1.80;;;;;4.33;74.58;99064.84;5035426;28;8847;-92
2023/12/08 00:52:30;;;;;;;;;1.00;1.00;;;;;4.35;73.85;99073.47;5035528;28;8863;-92
2023/12/08 00:54:57;;;;;;;;;1.40;1.00;;;;;4.34;74.09;99066.53;5035057;28;8891;-92
2023/12/08 00:57:25;;;;;;;;;1.00;1.00;;;;;4.34;74.27;99062.06;5035554;28;8976;-93
2023/12/08 00:59:53;;;;;;;;;1.80;1.40;;;;;4.38;74.27;99062.72;5035350;28;8872;-92
2023/12/08 01:02:21;;;;;;;;;0.00;0.00;;;;;4.44;74.13;99072.84;5034933;28;8832;-92
2023/12/08 01:04:49;;;;;;;;;1.40;1.40;;;;;4.50;73.92;99077.69;5034549;28;8896;-92
2023/12/08 01:07:16;;;;;;;;;3.00;3.00;;;;;4.56;73.59;99078.09;5034766;28;8824;-92
2023/12/08 01:09:44;;;;;;;;;3.00;1.00;;;;;4.61;73.54;99075.13;5035353;28;8843;-93
2023/12/08 01:12:12;;;;;;;;;1.00;1.00;;;;;4.64;73.21;99072.31;5035431;28;8844;-93
2023/12/08 01:14:40;;;;;;;;;1.00;1.00;;;;;4.64;72.31;99067.03;5040689;28;8839;-92
2023/12/08 01:17:07;;;;;;;;;0.20;0.00;;;;;4.62;72.54;99066.28;5051289;28;8860;-93
2023/12/08 01:19:35;;;;;;;;;1.00;1.00;;;;;4.62;72.12;99072.41;5050123;28;9507;-93
2023/12/08 01:22:03;;;;;;;;;1.40;0.80;;;;;4.66;72.04;99051.94;5034719;28;8934;-92
2023/12/08 01:24:32;;;;;;;;;3.40;3.20;;;;;4.69;71.96;99049.09;5035387;28;8847;-93
2023/12/08 01:26:59;;;;;;;;;2.60;2.60;;;;;4.70;71.52;99056.91;5035704;28;8848;-92
2023/12/08 01:29:27;;;;;;;;;3.20;3.20;;;;;4.70;71.54;99051.63;5035898;28;8947;-92
2023/12/08 01:31:55;;;;;;;;;1.00;0.00;;;;;4.70;71.88;99054.25;5035694;28;8876;-93
2023/12/08 01:34:23;;;;;;;;;2.60;2.20;;;;;4.69;71.77;99042.03;5035071;28;8832;-93
2023/12/08 01:36:50;;;;;;;;;0.60;0.60;;;;;4.69;72.35;99051.72;5033919;28;9026;-92
2023/12/08 01:39:18;;;;;;;;;3.20;1.80;;;;;4.69;72.21;99049.09;5032775;28;8928;-93
2023/12/08 01:41:46;;;;;;;;;0.00;0.00;;;;;4.67;72.24;99058.91;5035293;28;8844;-92
2023/12/08 01:44:13;;;;;;;;;6.20;4.00;;;;;4.66;72.14;99058.06;5035406;28;8938;-92
2023/12/08 01:46:41;;;;;;;;;1.00;1.00;;;;;4.67;72.01;99061.53;5035334;28;8844;-93
2023/12/08 01:49:09;;;;;;;;;1.00;1.00;;;;;4.69;71.93;99055.22;5034810;28;8837;-93
2023/12/08 01:51:37;;;;;;;;;1.00;1.00;;;;;4.68;72.61;99056.16;5034002;28;8840;-92
2023/12/08 01:54:04;;;;;;;;;1.00;1.00;;;;;4.70;71.96;99043.72;5034944;28;8858;-93
2023/12/08 01:56:32;;;;;;;;;0.60;0.60;;;;;4.73;71.99;99029.47;5034656;28;8837;-92
2023/12/08 01:59:00;;;;;;;;;3.00;1.00;;;;;4.74;72.36;99008.28;5035018;28;8844;-93
2023/12/08 02:01:27;;;;;;;;;2.60;1.40;;;;;4.74;72.29;99016.19;5033497;28;8848;-92
2023/12/08 02:03:55;;;;;;;;;1.00;1.00;;;;;4.74;72.00;99010.06;5034286;28;8857;-92
2023/12/08 02:06:23;;;;;;;;;0.00;0.00;;;;;4.74;72.13;99023.25;5034574;28;8841;-92
2023/12/08 02:08:51;;;;;;;;;1.00;1.00;;;;;4.75;71.94;99030.22;5032680;28;8840;-92
2023/12/08 02:11:18;;;;;;;;;1.00;1.00;;;;;4.77;72.00;99021.25;5014502;28;8847;-90
2023/12/08 02:13:46;;;;;;;;;3.00;1.00;;;;;4.78;72.20;99016.81;5015108;28;8854;-93
2023/12/08 02:16:14;;;;;;;;;0.25;0.25;;;;;4.77;72.12;99008.06;4966992;28;1385065;-92
2023/12/08 02:18:41;;;;;;;;;1.00;0.80;;;;;4.74;72.28;98994.25;5016017;28;9493;-93
2023/12/08 02:21:09;;;;;;;;;0.40;0.40;;;;;4.71;72.27;98997.94;5016081;28;8897;-93
2023/12/08 02:23:37;;;;;;;;;1.00;1.00;;;;;4.71;72.78;98994.47;5015672;28;8870;-93
2023/12/08 02:26:05;;;;;;;;;3.40;3.00;;;;;4.69;72.59;98996.34;5015920;28;8831;-93
2023/12/08 02:28:32;;;;;;;;;2.60;2.60;;;;;4.66;73.06;98993.94;5015842;28;8850;-93
2023/12/08 02:31:00;;;;;;;;;1.00;0.80;;;;;4.65;72.62;98976.44;5015532;28;8847;-92
2023/12/08 02:33:28;;;;;;;;;2.60;2.60;;;;;4.65;72.90;98987.00;5015536;28;8863;-92
2023/12/08 02:35:56;;;;;;;;;0.00;0.00;;;;;4.66;72.94;98997.44;5015588;28;8922;-93
2023/12/08 02:38:23;;;;;;;;;0.00;0.00;;;;;4.71;72.95;98997.94;5015903;28;8835;-90
2023/12/08 02:40:51;;;;;;;;;3.00;3.00;;;;;4.74;72.55;98987.19;5015717;28;8843;-93
2023/12/08 02:43:19;;;;;;;;;3.40;3.40;;;;;4.78;72.67;98985.19;5015444;28;8960;-92
2023/12/08 02:45:46;;;;;;;;;2.20;2.20;;;;;4.81;72.68;98980.53;5015448;28;8862;-92
2023/12/08 02:48:14;;;;;;;;;3.00;3.00;;;;;4.82;72.30;98984.00;5015486;28;8858;-93
2023/12/08 02:50:42;;;;;;;;;1.00;1.00;;;;;4.82;71.85;98984.00;5015785;28;9505;-93
2023/12/08 02:53:10;;;;;;;;;3.00;1.00;;;;;4.84;72.39;98976.81;5015842;28;9505;-93
2023/12/08 02:55:37;;;;;;;;;2.60;1.80;;;;;4.85;71.94;98973.22;5015611;28;8847;-91
2023/12/08 02:58:05;;;;;;;;;3.00;3.00;;;;;4.85;71.84;98974.06;5015449;28;8867;-92
2023/12/08 03:00:33;;;;;;;;;3.40;1.00;;;;;4.86;71.74;98974.94;5015475;28;9527;-93
2023/12/08 03:03:00;;;;;;;;;4.00;4.00;;;;;4.89;71.64;98975.53;5015535;28;8868;-91
2023/12/08 03:05:28;;;;;;;;;3.80;3.00;;;;;4.91;71.52;98978.06;5014901;28;8847;-93
2023/12/08 03:07:56;;;;;;;;;1.80;1.80;;;;;4.92;72.04;98979.72;5015553;28;8893;-92
2023/12/08 03:10:23;;;;;;;;;1.00;1.00;;;;;4.93;72.20;98976.16;5030042;28;8836;-92
2023/12/08 03:12:51;;;;;;;;;4.00;4.00;;;;;4.92;71.55;98974.44;5035420;28;8844;-93
2023/12/08 03:15:19;;;;;;;;;2.60;2.20;;;;;4.91;71.84;98978.06;5038863;28;8877;-92
2023/12/08 03:17:47;;;;;;;;;2.60;2.20;;;;;4.90;72.01;98968.47;5038166;28;8862;-92
2023/12/08 03:20:15;;;;;;;;;0.20;0.20;;;;;4.90;71.97;98957.91;5038932;28;8977;-92
2023/12/08 03:22:42;;;;;;;;;3.80;2.60;;;;;4.90;72.18;98966.69;5038573;28;8866;-92
2023/12/08 03:25:10;;;;;;;;;4.00;3.20;;;;;4.89;71.94;98959.72;5038243;28;8840;-92
2023/12/08 03:27:38;;;;;;;;;6.80;6.00;;;;;4.90;72.24;98945.56;5038398;28;8844;-92
2023/12/08 03:30:06;;;;;;;;;3.00;3.00;;;;;4.90;71.96;98948.22;5038359;28;8843;-93
2023/12/08 03:32:34;;;;;;;;;2.20;2.20;;;;;4.92;72.23;98954.22;5037878;28;9616;-92
2023/12/08 03:35:01;;;;;;;;;3.00;3.00;;;;;4.91;71.90;98952.53;5038119;28;8961;-93
2023/12/08 03:37:29;;;;;;;;;6.00;4.00;;;;;4.90;72.15;98950.84;5038243;28;8832;-92
2023/12/08 03:39:58;;;;;;;;;3.00;3.00;;;;;4.91;72.30;98965.72;5038226;28;8897;-92
2023/12/08 03:42:25;;;;;;;;;3.20;3.00;;;;;4.90;72.00;98957.91;5038359;28;8840;-92
2023/12/08 03:44:53;;;;;;;;;4.00;3.20;;;;;4.90;71.94;98963.19;5038240;28;8840;-93
2023/12/08 03:47:20;;;;;;;;;3.00;3.00;;;;;4.88;72.22;98963.28;5038310;28;8839;-92
2023/12/08 03:49:48;;;;;;;;;3.80;3.80;;;;;4.89;71.94;98975.53;5038029;28;8874;-93
2023/12/08 03:52:16;;;;;;;;;0.60;0.60;;;;;4.89;72.16;98972.06;5037748;28;8850;-92
2023/12/08 03:54:44;;;;;;;;;4.40;2.20;;;;;4.88;71.87;98965.91;5038188;28;8844;-94
2023/12/08 03:57:12;;;;;;;;;3.00;3.00;;;;;4.86;72.34;98973.09;5037769;28;8870;-91
2023/12/08 03:59:39;;;;;;;;;4.60;3.40;;;;;4.86;71.88;98974.94;5038071;28;8866;-93
2023/12/08 04:02:07;;;;;;;;;0.40;0.40;;;;;4.85;72.40;98965.28;5037307;28;8966;-93
2023/12/08 04:04:35;;;;;;;;;6.00;6.00;;;;;4.85;72.21;98981.13;5037663;28;8859;-93
2023/12/08 04:07:03;;;;;;;;;2.60;1.00;;;;;4.85;72.49;98983.75;5037656;28;8836;-92
2023/12/08 04:09:31;;;;;;;;;1.00;1.00;;;;;4.82;72.80;98978.72;5037909;28;8856;-92
2023/12/08 04:11:59;;;;;;;;;3.20;3.20;;;;;4.81;72.01;98987.59;5037763;28;8848;-92
2023/12/08 04:14:27;;;;;;;;;3.00;3.00;;;;;4.77;72.37;98978.19;5038089;28;8852;-92
2023/12/08 04:16:55;;;;;;;;;3.60;3.60;;;;;4.71;72.65;98979.47;5037190;28;8828;-92
2023/12/08 04:19:23;;;;;;;;;3.80;3.00;;;;;4.65;72.22;98973.81;5037610;28;8848;-92
2023/12/08 04:21:51;;;;;;;;;6.80;6.00;;;;;4.57;72.57;98978.78;5037900;28;8868;-92
2023/12/08 04:24:19;;;;;;;;;4.40;3.60;;;;;4.42;72.97;98971.97;5036729;28;8821;-89
2023/12/08 04:26:46;;;;;;;;;3.60;3.20;;;;;4.29;72.84;98968.50;5040023;28;8868;-92
2023/12/08 04:29:15;;;;;;;;;6.00;5.60;;;;;4.17;73.62;98959.66;5039209;28;8964;-91
2023/12/08 04:31:45;;;;;;;;;6.60;6.60;;;;;4.09;73.90;98958.50;5036302;28;8840;-90
2023/12/08 04:34:16;;;;;;;;;3.20;3.00;;;;;4.00;74.07;98962.63;5040408;28;9950;-91
2023/12/08 04:36:45;;;;;;;;;4.00;3.00;;;;;3.95;74.04;98954.19;5037583;28;8852;-91
2023/12/08 04:39:13;;;;;;;;;3.40;3.40;;;;;3.90;74.00;98948.38;5039263;28;8863;-91
2023/12/08 04:41:41;;;;;;;;;3.20;2.20;;;;;3.86;73.89;98946.94;5039486;28;9677;-91
2023/12/08 04:44:08;;;;;;;;;3.60;3.60;;;;;3.83;74.72;98947.16;5040889;28;8910;-91
2023/12/08 04:46:50;;;;;;;;;3.40;3.40;;;;;3.82;74.92;98944.59;5037938;28;8860;-91
2023/12/08 04:49:18;;;;;;;;;5.20;5.20;;;;;3.80;74.72;98938.63;5039909;28;8848;-91
2023/12/08 04:51:46;;;;;;;;;6.20;4.40;;;;;3.78;74.33;98945.75;5042581;28;8977;-91
2023/12/08 04:54:14;;;;;;;;;5.20;5.20;;;;;3.79;74.98;98934.28;5040286;28;8836;-92
2023/12/08 04:56:42;;;;;;;;;0.00;0.00;;;;;3.78;74.42;98943.13;5037790;28;9580;-91
2023/12/08 04:59:09;;;;;;;;;6.20;5.60;;;;;3.76;74.36;98947.66;5039422;28;9486;-91
2023/12/08 05:01:37;;;;;;;;;4.00;4.00;;;;;3.74;74.82;98939.84;5037569;28;8829;-91
2023/12/08 05:04:05;;;;;;;;;4.40;4.00;;;;;3.73;75.17;98943.44;5041343;28;8829;-91
2023/12/08 05:06:33;;;;;;;;;3.00;2.60;;;;;3.73;74.84;98934.72;5045016;28;8867;-91
2023/12/08 05:09:00;;;;;;;;;6.00;5.80;;;;;3.73;74.84;98939.97;5042236;28;8949;-91
2023/12/08 05:11:28;;;;;;;;;5.20;5.20;;;;;3.73;74.95;98926.81;5037080;28;8840;-92
2023/12/08 05:13:56;;;;;;;;;4.00;4.00;;;;;3.72;75.18;98937.44;5037130;28;8841;-92
2023/12/08 05:16:24;;;;;;;;;8.40;5.60;;;;;3.71;75.66;98928.69;5037384;28;8860;-91
2023/12/08 05:19:00;;;;;;;;;4.40;4.40;;;;;3.72;75.15;98932.19;5037442;28;8843;-91
2023/12/08 05:21:28;;;;;;;;;5.60;4.00;;;;;3.71;75.80;98923.41;5035842;28;9023;-91
2023/12/08 05:23:56;;;;;;;;;4.00;4.00;;;;;3.70;75.38;98915.66;5035518;28;8860;-91
2023/12/08 05:26:25;;;;;;;;;3.60;3.20;;;;;3.69;76.16;98920.06;5035945;28;8848;-91
2023/12/08 05:28:52;;;;;;;;;3.00;3.00;;;;;3.69;76.08;98913.97;5035758;28;8856;-91
2023/12/08 05:31:20;;;;;;;;;7.80;5.20;;;;;3.69;76.03;98914.78;5035825;28;8890;-92
2023/12/08 05:33:48;;;;;;;;;4.00;3.00;;;;;3.68;76.17;98910.47;5035279;28;9594;-92
2023/12/08 05:36:17;;;;;;;;;3.80;3.80;;;;;3.69;76.14;98913.97;5035325;28;8832;-92
2023/12/08 05:38:45;;;;;;;;;6.00;6.00;;;;;3.67;75.99;98910.59;5035265;28;8844;-91
2023/12/08 05:41:13;;;;;;;;;6.80;4.80;;;;;3.67;76.29;98915.84;5035351;28;8930;-91
2023/12/08 05:43:41;;;;;;;;;4.00;4.00;;;;;3.66;76.29;98901.00;5035094;28;8852;-91
2023/12/08 05:46:08;;;;;;;;;6.40;4.40;;;;;3.67;76.47;98907.94;5034192;28;9560;-91
2023/12/08 05:48:36;;;;;;;;;5.60;5.60;;;;;3.68;76.84;98902.59;5033543;28;8921;-92
2023/12/08 05:51:04;;;;;;;;;5.00;4.20;;;;;3.68;76.19;98910.47;5034262;28;9545;-92
2023/12/08 05:53:32;;;;;;;;;2.20;1.80;;;;;3.67;76.48;98907.00;5034587;28;9006;-92
2023/12/08 05:56:00;;;;;;;;;6.00;6.00;;;;;3.69;77.07;98909.53;5034721;28;8872;-91
2023/12/08 05:58:28;;;;;;;;;3.20;3.20;;;;;3.71;76.52;98906.81;5034941;28;8875;-91
2023/12/08 06:00:56;;;;;;;;;8.60;6.60;;;;;3.72;77.18;98898.78;5035136;28;8845;-93
2023/12/08 06:03:24;;;;;;;;;6.00;5.60;;;;;3.72;76.78;98906.69;5034686;28;8852;-89
2023/12/08 06:05:52;;;;;;;;;3.80;3.60;;;;;3.72;76.52;98906.69;5034304;28;8860;-90
2023/12/08 06:08:20;;;;;;;;;7.80;6.40;;;;;3.73;77.29;98901.31;5035070;28;8860;-90
2023/12/08 06:10:48;;;;;;;;;5.60;5.20;;;;;3.74;76.86;98899.53;5033962;28;8845;-90
2023/12/08 06:13:16;;;;;;;;;4.00;4.00;;;;;3.75;77.54;98914.38;5034416;28;8849;-90
2023/12/08 06:15:44;;;;;;;;;4.80;4.80;;;;;3.74;76.95;98920.59;5034575;28;8967;-91
2023/12/08 06:18:12;;;;;;;;;4.40;3.00;;;;;3.75;77.31;98923.09;5034381;28;8879;-91
2023/12/08 06:20:39;;;;;;;;;4.80;3.40;;;;;3.76;77.37;98926.59;5034756;28;8910;-91
2023/12/08 06:23:07;;;;;;;;;6.60;6.00;;;;;3.77;77.19;98930.09;5034266;28;8848;-91
2023/12/08 06:25:35;;;;;;;;;8.20;7.80;;;;;3.78;77.29;98944.94;5033687;28;8844;-91
2023/12/08 06:28:04;;;;;;;;;8.20;7.20;;;;;3.77;77.36;98954.59;5034334;28;8975;-91
2023/12/08 06:30:32;;;;;;;;;4.00;4.00;;;;;3.77;77.27;98956.41;5034377;28;8938;-91
2023/12/08 06:32:59;;;;;;;;;5.60;5.60;;;;;3.76;77.19;98952.91;5034938;28;8856;-91
2023/12/08 06:35:27;;;;;;;;;0.80;0.80;;;;;3.75;77.42;98956.50;5034080;28;9510;-91
2023/12/08 06:37:55;;;;;;;;;4.00;3.80;;;;;3.72;77.14;98962.81;5034127;28;9545;-91
2023/12/08 06:40:22;;;;;;;;;4.00;3.60;;;;;3.71;77.78;98960.28;5033656;28;8844;-91
2023/12/08 06:42:50;;;;;;;;;1.00;1.00;;;;;3.69;77.38;98964.81;5033877;28;8909;-92
2023/12/08 06:45:18;;;;;;;;;5.20;4.00;;;;;3.67;78.03;98968.47;5033065;28;8833;-92
2023/12/08 06:47:46;;;;;;;;;6.80;6.60;;;;;3.63;78.12;98967.84;5033788;28;8867;-92
2023/12/08 06:50:14;;;;;;;;;6.80;6.80;;;;;3.62;77.79;98970.59;5035930;28;8863;-92
2023/12/08 06:52:42;;;;;;;;;5.60;5.20;;;;;3.59;78.41;98976.91;5035569;28;8940;-92
2023/12/08 06:55:10;;;;;;;;;6.60;4.40;;;;;3.57;77.80;98977.94;5035469;28;9170;-92
2023/12/08 06:57:37;;;;;;;;;9.00;9.00;;;;;3.57;77.95;98972.69;5035517;28;8871;-92
2023/12/08 07:00:10;;;;;;;;;7.80;6.80;;;;;3.57;78.39;98970.06;5035944;28;9518;-92
2023/12/08 07:02:38;;;;;;;;;5.40;4.80;;;;;3.57;77.96;98976.16;5036055;28;9823;-92
2023/12/08 07:05:06;;;;;;;;;5.40;5.40;;;;;3.58;78.02;98967.34;5036008;28;8986;-92
2023/12/08 07:07:34;;;;;;;;;6.00;5.60;;;;;3.60;78.11;98969.84;5035560;28;8857;-91
2023/12/08 07:10:01;;;;;;;;;4.80;4.00;;;;;3.62;78.12;98966.16;5037118;28;8950;-92
2023/12/08 07:12:30;;;;;;;;;7.40;6.80;;;;;3.64;78.45;98958.19;5040972;28;8845;-92
2023/12/08 07:14:58;;;;;;;;;6.40;6.20;;;;;3.67;77.96;98955.31;5038659;28;8863;-92
2023/12/08 07:17:25;;;;;;;;;6.00;6.00;;;;;3.70;78.07;98950.69;5037374;28;8821;-92
2023/12/08 07:19:53;;;;;;;;;6.60;6.40;;;;;3.73;78.12;98939.97;5037607;28;8907;-92
2023/12/08 07:22:21;;;;;;;;;9.20;7.00;;;;;3.77;78.45;98944.06;5038570;28;8883;-92
2023/12/08 07:24:49;;;;;;;;;9.20;7.00;;;;;3.79;78.42;98936.91;5037909;28;8994;-91
2023/12/08 07:27:17;;;;;;;;;3.40;2.20;;;;;3.82;78.28;98941.97;5038045;28;8843;-92
2023/12/08 07:29:46;;;;;;;;;12.80;12.20;;;;;3.84;77.77;98948.81;5038637;28;8833;-92
2023/12/08 07:32:14;;;;;;;;;4.80;4.80;;;;;3.88;77.85;98958.19;5038617;28;8864;-91
2023/12/08 07:34:42;;;;;;;;;6.60;6.60;;;;;3.90;78.25;98963.34;5038041;28;8848;-92
2023/12/08 07:37:09;;;;;;;;;7.40;7.00;;;;;3.91;78.18;98947.47;5037356;28;8841;-92
2023/12/08 07:39:37;;;;;;;;;7.80;6.80;;;;;3.92;78.32;98948.28;5036992;28;8853;-91
2023/12/08 07:42:06;;;;;;;;;3.60;2.20;;;;;3.93;78.21;98965.75;5037912;28;8849;-92
2023/12/08 07:44:35;;;;;;;;;2.80;2.60;;;;;3.94;78.68;98977.97;5036941;28;8867;-92
2023/12/08 07:47:02;;;;;;;;;12.00;9.00;;;;;3.95;78.71;98971.78;5037307;28;8856;-91
2023/12/08 07:49:30;;;;;;;;;6.60;5.20;;;;;3.97;78.44;98980.41;5037263;28;8898;-92
2023/12/08 07:51:59;;;;;;;;;6.60;4.80;;;;;3.99;78.70;98999.59;5037112;28;8971;-91
2023/12/08 07:54:31;;;;;;;;;9.20;7.80;;;;;4.00;78.45;98994.22;5038025;28;8990;-92
2023/12/08 07:56:59;;;;;;;;;11.40;9.60;;;;;4.00;78.58;98973.16;5036331;28;8845;-92
2023/12/08 07:59:27;;;;;;;;;12.00;11.00;;;;;4.01;78.86;98988.00;5037046;28;8852;-92
2023/12/08 08:01:55;;;;;;;;;4.40;4.40;;;;;4.01;78.43;98980.09;5037260;28;8829;-92
2023/12/08 08:04:23;;;;;;;;;5.20;5.20;;;;;4.00;79.04;98967.03;5037374;28;8840;-92
2023/12/08 08:06:51;;;;;;;;;6.00;4.80;;;;;3.98;78.85;98964.50;5036921;28;8856;-92
2023/12/08 08:09:18;;;;;;;;;9.80;6.80;;;;;3.96;78.65;98973.47;5036733;28;9216;-92
2023/12/08 08:11:46;;;;;;;;;6.60;6.60;;;;;3.94;79.02;98970.94;5036694;28;8879;-91
2023/12/08 08:14:14;;;;;;;;;7.00;4.40;;;;;3.94;79.08;98968.31;5036390;28;8880;-92
2023/12/08 08:16:42;;;;;;;;;8.60;6.40;;;;;3.95;79.54;98972.63;5036285;28;8836;-91
2023/12/08 08:19:10;;;;;;;;;9.20;7.80;;;;;3.97;78.95;98964.63;5036037;28;8855;-92
2023/12/08 08:21:38;;;;;;;;;9.20;8.40;;;;;3.99;78.89;98967.97;5036674;28;8848;-93
2023/12/08 08:24:06;;;;;;;;;8.40;8.40;;;;;4.01;79.22;98966.06;5035985;28;8864;-92
2023/12/08 08:26:33;;;;;;;;;1.40;1.00;;;;;4.03;78.88;98974.75;5035641;28;8852;-93
2023/12/08 08:29:01;;;;;;;;;6.40;6.40;;;;;4.06;79.72;98971.88;5035909;28;8922;-91
2023/12/08 08:31:29;;;;;;;;;7.40;6.40;;;;;4.07;79.27;98973.56;5035206;28;8971;-91
2023/12/08 08:33:57;;;;;;;;;8.20;7.00;;;;;4.11;79.84;98978.50;5035341;28;8926;-91
2023/12/08 08:36:25;;;;;;;;;8.00;7.00;;;;;4.12;79.92;98974.09;5034965;28;9554;-91
2023/12/08 08:38:55;;;;;;;;;9.40;9.00;;;;;4.14;79.38;98974.84;5034771;28;8867;-92
2023/12/08 08:41:23;;;;;;;;;6.40;6.00;;;;;4.16;79.57;98986.09;5035015;28;8855;-92
2023/12/08 08:43:51;;;;;;;;;7.00;6.80;;;;;4.17;79.62;98977.25;5035367;28;8840;-91
2023/12/08 08:46:19;;;;;;;;;3.60;3.00;;;;;4.19;79.47;98978.00;5044284;28;8863;-92
2023/12/08 08:48:46;;;;;;;;;7.80;6.80;;;;;4.20;79.86;98980.50;5051621;28;8825;-92
2023/12/08 08:51:16;;;;;;;;;7.40;6.60;;;;;4.22;79.28;98988.31;5042932;28;8945;-92
2023/12/08 08:53:44;;;;;;;;;5.60;5.60;;;;;4.24;79.39;98996.94;5034934;28;9285;-91
2023/12/08 08:56:12;;;;;;;;;3.00;1.80;;;;;4.24;79.76;99000.44;5035813;28;8856;-91
2023/12/08 08:58:40;;;;;;;;;4.80;4.80;;;;;4.26;79.08;99006.44;5035459;28;8847;-92
2023/12/08 09:01:08;;;;;;;;;7.00;7.00;;;;;4.29;79.28;98994.84;5035741;28;8966;-91
2023/12/08 09:03:36;;;;;;;;;4.00;3.20;;;;;4.31;79.46;99006.97;5035723;28;8866;-92
2023/12/08 09:06:04;;;;;;;;;6.20;6.20;;;;;4.33;79.47;99006.88;5036679;28;8871;-91
2023/12/08 09:08:33;;;;;;;;;4.40;4.00;;;;;4.35;79.19;99015.50;5035451;28;8855;-91
2023/12/08 09:11:00;;;;;;;;;8.60;6.20;;;;;4.35;79.13;99013.69;5034446;28;8852;-91
2023/12/08 09:13:28;;;;;;;;;8.00;8.00;;;;;4.37;79.17;99009.19;5034564;28;8942;-92
2023/12/08 09:15:56;;;;;;;;;4.20;4.20;;;;;4.38;79.33;99010.88;5034393;28;8874;-91
2023/12/08 09:18:24;;;;;;;;;7.00;6.00;;;;;4.40;79.40;99011.59;5034555;28;9003;-91
2023/12/08 09:20:52;;;;;;;;;9.60;6.80;;;;;4.42;79.08;99007.03;5035278;28;8848;-91
2023/12/08 09:23:20;;;;;;;;;11.40;9.40;;;;;4.45;79.31;99006.84;5035334;28;8963;-92
2023/12/08 09:25:48;;;;;;;;;7.60;5.80;;;;;4.47;79.13;99014.63;5034639;28;8849;-92
2023/12/08 09:28:16;;;;;;;;;3.80;3.80;;;;;4.49;79.29;99029.41;5034642;28;8871;-92
2023/12/08 09:30:44;;;;;;;;;7.00;5.20;;;;;4.51;79.03;99026.66;5034822;28;8922;-91
2023/12/08 09:33:12;;;;;;;;;6.20;4.40;;;;;4.51;79.50;99016.97;5035041;28;8856;-91
2023/12/08 09:35:40;;;;;;;;;9.20;8.60;;;;;4.51;79.56;99024.88;5035195;28;8856;-91
2023/12/08 09:38:08;;;;;;;;;7.00;7.00;;;;;4.52;79.66;99025.72;5035492;28;8861;-91
2023/12/08 09:40:47;;;;;;;;;3.00;3.00;;;;;4.55;79.00;99028.13;5035734;28;8856;-91
2023/12/08 09:43:16;;;;;;;;;12.00;7.40;;;;;4.55;79.42;99025.47;5035235;28;8845;-91
2023/12/08 09:45:44;;;;;;;;;6.40;6.40;;;;;4.55;79.67;99023.69;5035766;28;8848;-91
2023/12/08 09:48:12;;;;;;;;;8.20;6.80;;;;;4.57;79.66;99020.97;5035428;28;9503;-91
2023/12/08 09:50:40;;;;;;;;;10.80;9.80;;;;;4.59;79.35;99008.50;5034626;28;8856;-91
2023/12/08 09:53:08;;;;;;;;;9.60;8.20;;;;;4.62;79.36;99019.69;5034748;28;8879;-90
2023/12/08 09:55:37;;;;;;;;;13.00;9.40;;;;;4.65;79.40;99023.91;5035845;28;8848;-90
2023/12/08 09:58:05;;;;;;;;;7.00;6.60;;;;;4.68;79.17;99031.59;5035246;28;8854;-91
2023/12/08 10:00:33;;;;;;;;;8.60;7.40;;;;;4.70;79.28;99032.31;5035353;28;8852;-91
2023/12/08 10:03:01;;;;;;;;;6.40;6.20;;;;;4.71;79.49;99034.03;5034921;28;8975;-91
2023/12/08 10:05:29;;;;;;;;;9.00;9.00;;;;;4.73;79.37;99027.66;5033794;28;9891;-91
2023/12/08 10:07:58;;;;;;;;;7.80;6.60;;;;;4.75;79.07;99017.03;5034346;28;9562;-91
2023/12/08 10:10:26;;;;;;;;;9.80;8.20;;;;;4.77;79.16;99015.09;5033863;28;8995;-91
2023/12/08 10:12:54;;;;;;;;;9.80;9.80;;;;;4.78;79.43;99020.28;5034065;28;8880;-91
2023/12/08 10:15:22;;;;;;;;;7.60;7.60;;;;;4.79;79.16;99031.69;5036192;28;8877;-91
2023/12/08 10:17:51;;;;;;;;;6.60;6.00;;;;;4.80;79.71;99022.81;5036801;28;8987;-91
2023/12/08 10:20:20;;;;;;;;;12.00;10.40;;;;;4.81;79.67;99025.34;5035206;28;8867;-91
2023/12/08 10:22:48;;;;;;;;;14.00;12.60;;;;;4.83;79.33;99025.22;5037069;28;8937;-93
2023/12/08 10:25:16;;;;;;;;;6.00;5.60;;;;;4.82;79.76;99027.03;5039436;28;9533;-93
2023/12/08 10:27:45;;;;;;;;;6.40;5.60;;;;;4.84;79.66;99021.63;5039520;28;8932;-93
2023/12/08 10:30:13;;;;;;;;;9.20;9.20;;;;;4.84;79.80;99011.94;5038868;28;8979;-93
2023/12/08 10:32:42;;;;;;;;;8.20;7.00;;;;;4.86;79.88;99006.56;5038747;28;9586;-93
2023/12/08 10:35:11;;;;;;;;;9.40;8.60;;;;;4.87;79.58;99008.25;5039172;28;8856;-92
2023/12/08 10:37:39;;;;;;;;;9.60;9.40;;;;;4.89;79.36;99006.34;5039143;28;8950;-94
2023/12/08 10:40:07;;;;;;;;;6.20;4.00;;;;;4.91;80.00;99010.56;5039041;28;8864;-94
2023/12/08 10:42:35;;;;;;;;;4.80;4.00;;;;;4.93;79.42;99006.00;5039900;28;8837;-92
2023/12/08 10:45:03;;;;;;;;;10.00;8.60;;;;;4.97;79.27;98999.56;5039110;28;8872;-93
2023/12/08 10:47:31;;;;;;;;;6.40;4.80;;;;;5.00;79.82;99001.13;5038097;28;9501;-93
2023/12/08 10:49:59;;;;;;;;;4.80;4.00;;;;;5.03;79.60;98999.09;5037410;28;8844;-93
2023/12/08 10:52:27;;;;;;;;;8.40;7.80;;;;;5.08;79.71;98999.63;5037413;28;8858;-93
2023/12/08 10:54:55;;;;;;;;;7.40;7.00;;;;;5.12;78.77;98987.91;5038456;28;9340;-93
2023/12/08 10:57:23;;;;;;;;;5.20;5.20;;;;;5.17;79.19;98992.84;5038228;28;8943;-93
2023/12/08 10:59:52;;;;;;;;;8.80;7.80;;;;;5.22;79.23;98998.59;5037042;28;8840;-93
2023/12/08 11:02:20;;;;;;;;;4.80;4.80;;;;;5.26;79.26;98995.63;5037108;28;8979;-92
2023/12/08 11:04:47;;;;;;;;;8.00;8.00;;;;;5.29;79.49;98998.06;5036275;28;9039;-93
2023/12/08 11:07:16;;;;;;;;;8.60;8.60;;;;;5.33;79.25;98998.69;5037674;28;8852;-92
2023/12/08 11:09:45;;;;;;;;;6.80;6.20;;;;;5.37;79.33;98997.47;5038726;28;8864;-93
2023/12/08 11:12:13;;;;;;;;;7.00;6.80;;;;;5.39;79.54;98995.59;5038874;28;8856;-93
2023/12/08 11:14:41;;;;;;;;;6.00;6.00;;;;;5.42;79.18;98996.22;5037495;28;8856;-93
2023/12/08 11:17:09;;;;;;;;;5.80;4.00;;;;;5.45;79.36;99005.69;5038216;28;8863;-93
2023/12/08 11:19:37;;;;;;;;;7.00;7.00;;;;;5.48;79.45;99010.75;5037691;28;8864;-93
2023/12/08 11:22:05;;;;;;;;;6.00;4.80;;;;;5.51;79.72;99013.16;5036960;28;8974;-93
2023/12/08 11:24:33;;;;;;;;;6.00;5.60;;;;;5.54;79.34;99011.13;5037084;28;9534;-93
2023/12/08 11:27:01;;;;;;;;;5.00;5.00;;;;;5.58;79.05;99007.31;5037100;28;8852;-93
2023/12/08 11:29:29;;;;;;;;;6.20;5.60;;;;;5.62;79.29;99000.84;5036700;28;9537;-93
2023/12/08 11:31:58;;;;;;;;;6.00;5.60;;;;;5.66;79.53;99012.00;5036380;28;8852;-92
2023/12/08 11:34:26;;;;;;;;;4.40;3.00;;;;;5.67;78.81;99011.91;5035483;28;8982;-93
2023/12/08 11:36:54;;;;;;;;;4.00;4.00;;;;;5.70;79.03;99010.84;5036722;28;8852;-93
2023/12/08 11:39:23;;;;;;;;;4.00;4.00;;;;;5.72;79.19;99025.63;5036209;28;8875;-93
2023/12/08 11:41:51;;;;;;;;;4.00;3.80;;;;;5.73;79.41;99016.72;5036554;28;8844;-93
2023/12/08 11:44:19;;;;;;;;;7.00;6.20;;;;;5.74;79.40;99018.41;5037580;28;8837;-93
2023/12/08 11:46:47;;;;;;;;;4.00;4.00;;;;;5.77;79.59;99020.00;5036755;28;8903;-92
2023/12/08 11:49:16;;;;;;;;;5.20;4.40;;;;;5.79;79.50;99023.34;5036184;28;8906;-92
2023/12/08 11:51:44;;;;;;;;;5.60;2.80;;;;;5.78;79.62;99029.59;5036836;28;8870;-93